Accueil
METAR-TAF:

METAR-TAF

Aéroports :

Boscombe Down, Angleterre

latitude: 51-10N, longitude: 001-45W, altitude: 124 m

Observation

Le bulletin a été fait il y a 38 minutes, à 23:50 UTC
Vent 7 kt de nord
Température 1°C
Humidité 100%
Pression 1024 hPa
Visibilité: 5000 m
brume

METAR: EGDM 212350Z AUTO 01007KT 5000 BR NCD 01/01 Q1024

Heure: 00:28 (00:28 UTC)

Prévision

Le bulletin a été fait il y a 10 heures et 33 minutes, à 13:55 UTC
Prévision valable du 21 à 15 UTC au 21 à 19 UTC
Vent 7 kt de nord-est
Visibilité 10 km ou plus
Quelques nuages à une hauteur de 2500 ft
Evoluant progressivement
du 21 à 17 UTC au 21 à 19 UTC
Visibilité: 6000 m
brume sèche

TAF: EGDM 211355Z 2115/2119 04007KT 9999 FEW025 BECMG 2117/2119 6000 HZ

Observations et prévisions météorologiques de plus de 4000 aéroports (messages METAR et TAF).

Les stations disponibles sont représentées par des disques jaunes et rouges sur la carte.

Passer la souris dessus pour voir le nom de la station.

Cliquer dessus pour voir les observations et prévisions météorologiques.

Pour changer de carte: cliquez sur les boutons verts avec une croix noire pour zoomer, sur le bouton vert avec un tiret pour effectuer un zoom arrière, ou sur les flèches vertes pour les cartes adjacentes.


METAR-TAF: